Terminal Aerodrome Forecast
Issued by NWS

Home | Current Version | Previous Version | Text Only | Print | Product List | Glossary On
Versions: 1 2 3 4 5 6 7 8 9 10 11 12 13 14 15 16 17 18 19 20 21
000
FTUS43 KBIS 171720
TAFDIK
TAF
KDIK 171720Z 1718/1818 29014KT P6SM FEW150
     FM180500 11011KT P6SM OVC045
     FM180700 09014KT 1 1/2SM -SN BLSN OVC010
     FM181000 05012KT 1SM -SN OVC008
     FM181500 01013KT 3SM -SN BKN010
     FM181700 36012KT P6SM BKN020=

USA.gov is the U.S. government's official web portal to all federal, state and local government web resources and services.